Latest Weather Observations for Meekatharra

IDW60801

Issued at 6:03 pm WST Saturday 20 July 2019 (issued every 10 minutes, with the page automatically refreshed every 10 minutes)

About weather observations | Map of weather stations | Latest weather observations for WA | Other Formats
Station Details ID: 007045 Name: MEEKATHARRA AIRPORT Lat: -26.61 Lon: 118.54 Height: 517.0 m
Data from the previous 72 hours. | See also: Recent months at Meekatharra
Date/Time
WST
Temp
°C
App
Temp
°C
Dew
Point
°C
Rel
Hum
%
Delta-T
°C
Wind Press
QNH
hPa
Press
MSL
hPa
Rain since
9am
mm
Dir  Spd
km/h
Gust
km/h
Spd
kts
Gust
kts
20/06:00pm 14.5 9.4 0.7 39 6.0 S 17 20 9 11 1021.0 1020.4 0.0
20/05:30pm 15.1 9.6 0.9 38 6.3 SSW 19 26 10 14 1020.7 1020.1 0.0
20/05:00pm 16.1 10.6 0.7 35 6.8 S 19 24 10 13 1020.7 1020.1 0.0
20/04:30pm 16.4 10.8 0.9 35 7.0 S 20 28 11 15 1020.4 1019.9 0.0
20/04:00pm 16.7 10.3 0.8 34 7.1 SSW 24 35 13 19 1020.3 1019.8 0.0
20/03:30pm 17.0 10.9 0.6 33 7.4 S 22 32 12 17 1020.2 1019.7 0.0
20/03:00pm 16.8 10.3 0.5 33 7.3 SSW 24 37 13 20 1020.1 1019.6 0.0
20/02:30pm 16.9 10.8 0.5 33 7.3 SSW 22 32 12 17 1020.1 1019.6 0.0
20/02:00pm 16.0 9.0 -0.2 33 7.1 SSW 26 37 14 20 1020.1 1019.6 0.0
20/01:30pm 16.5 10.9 1.0 35 7.0 SSW 20 33 11 18 1020.2 1019.7 0.0
20/01:00pm 15.4 8.9 0.4 36 6.6 SSW 24 37 13 20 1020.4 1019.9 0.0
20/12:30pm 15.3 8.5 1.1 38 6.3 SSW 26 35 14 19 1020.8 1020.2 0.0
20/12:00pm 14.8 8.6 2.4 43 5.7 SSW 24 39 13 21 1021.1 1020.6 0.0
20/11:30am 14.8 9.1 2.7 44 5.6 SSW 22 33 12 18 1021.2 1020.7 0.0
20/11:00am 14.3 8.7 3.7 49 4.9 SSW 22 32 12 17 1021.4 1020.9 0.0
20/10:30am 14.5 7.8 3.9 49 5.0 SSW 28 41 15 22 1021.4 1020.9 0.0
20/10:00am 13.9 8.2 4.8 54 4.3 SSW 24 33 13 18 1021.3 1020.8 0.0
20/09:30am 13.1 7.1 5.3 59 3.7 SW 26 35 14 19 1021.2 1020.7 0.0
20/09:00am 12.6 6.4 6.2 65 3.1 SSW 28 35 15 19 1020.7 1020.1 0.0
20/08:30am 11.9 7.1 7.2 73 2.3 SSW 22 32 12 17 1020.3 1019.8 0.0
20/08:00am 11.3 7.0 7.8 79 1.7 SW 20 26 11 14 1019.7 1019.2 0.0
20/07:30am 11.3 7.6 8.0 80 1.7 SW 17 24 9 13 1019.2 1018.6 0.0
20/07:00am 11.2 7.2 8.1 81 1.6 SW 19 22 10 12 1018.7 1018.1 0.0
20/06:30am 11.2 7.6 8.2 82 1.5 SW 17 20 9 11 1018.0 1017.5 0.0
20/06:00am 11.3 7.1 8.2 81 1.6 SW 20 28 11 15 1017.7 1017.2 0.0
20/05:30am 11.5 6.6 8.5 82 1.5 SW 24 35 13 19 1017.2 1016.6 0.0
20/05:00am 11.7 7.0 9.1 84 1.3 SW 24 35 13 19 1016.9 1016.3 0.0
20/04:59am 11.7 6.6 9.1 84 1.3 SW 26 39 14 21 1016.9 1016.3 0.0
20/04:31am 12.1 8.5 10.5 90 0.8 WSW 20 32 11 17 1016.6 1016.0 0.0
20/04:30am 12.1 8.5 10.5 90 0.8 WSW 20 32 11 17 1016.5 1015.9 0.0
20/04:16am 12.0 8.0 10.4 90 0.8 WSW 22 32 12 17 1016.5 1015.9 0.0
20/04:11am 12.1 8.1 10.5 90 0.8 W 22 35 12 19 1016.3 1015.8 0.0
20/04:00am 12.2 7.4 10.3 88 1.0 WSW 26 39 14 21 1016.2 1015.7 0.0
20/03:56am 12.8 8.2 9.8 82 1.6 W 24 35 13 19 1016.3 1015.8 0.0
20/03:30am 13.4 9.0 9.1 75 2.2 W 22 41 12 22 1015.9 1015.3 0.0
20/03:00am 13.2 8.7 8.7 74 2.3 WNW 22 35 12 19 1015.6 1015.0 0.0
20/02:30am 13.1 9.0 8.0 71 2.6 WNW 19 26 10 14 1015.5 1014.9 0.0
20/02:00am 13.2 9.4 7.6 69 2.8 W 17 24 9 13 1015.4 1014.8 0.0
20/01:30am 13.5 9.7 7.5 67 3.0 W 17 20 9 11 1015.4 1014.8 0.0
20/01:00am 14.0 9.7 7.1 63 3.5 W 19 28 10 15 1015.4 1014.8 0.0
20/12:30am 14.4 9.6 5.7 56 4.3 W 20 33 11 18 1015.5 1014.9 0.0
20/12:00am 14.6 9.7 4.0 49 5.0 W 19 32 10 17 1015.1 1014.5 0.0
 
Date/Time
WST
Temp
°C
App
Temp
°C
Dew
Point
°C
Rel
Hum
%
Delta-T
°C
Wind Press
QNH
hPa
Press
MSL
hPa
Rain since
9am
mm
Dir  Spd
km/h
Gust
km/h
Spd
kts
Gust
kts
19/11:30pm 15.1 10.0 3.3 45 5.5 W 19 30 10 16 1014.9 1014.3 0.0
19/11:00pm 15.3 9.6 -0.9 33 6.9 W 19 28 10 15 1014.9 1014.3 0.0
19/10:30pm 15.8 10.0 -4.7 24 8.1 W 17 24 9 13 1014.9 1014.3 0.0
19/10:00pm 16.2 10.5 -7.4 19 8.9 WNW 15 20 8 11 1014.7 1014.1 0.0
19/09:30pm 16.6 10.9 -7.8 18 9.1 W 15 20 8 11 1014.3 1013.7 0.0
19/09:00pm 17.6 11.7 -9.3 15 9.9 W 15 20 8 11 1014.5 1013.9 0.0
19/08:30pm 18.0 12.0 -10.8 13 10.3 WNW 15 19 8 10 1014.2 1013.6 0.0
19/08:00pm 18.4 12.7 -12.6 11 10.7 WNW 13 19 7 10 1013.9 1013.3 0.0
19/07:30pm 18.6 13.3 -12.4 11 10.8 WNW 11 15 6 8 1013.9 1013.3 0.0
19/07:00pm 19.9 14.2 -12.6 10 11.5 WNW 13 17 7 9 1013.8 1013.2 0.0
19/06:30pm 20.3 14.9 -13.6 9 11.8 WNW 11 15 6 8 1013.8 1013.2 0.0
19/06:00pm 22.0 15.9 -13.7 8 12.6 WNW 15 20 8 11 1013.7 1013.1 0.0
19/05:30pm 23.3 15.8 -14.4 7 13.4 WNW 22 32 12 17 1013.7 1013.1 0.0
19/05:00pm 24.4 16.5 -13.6 7 13.9 NW 24 37 13 20 1013.6 1013.0 0.0
19/04:30pm 25.2 17.3 -14.9 6 14.4 WNW 24 37 13 20 1013.6 1013.0 0.0
19/04:00pm 25.5 16.1 -14.7 6 14.6 NW 32 43 17 23 1013.5 1012.9 0.0
19/03:30pm 25.9 17.2 -14.4 6 14.7 NW 28 41 15 22 1013.5 1012.9 0.0
19/03:00pm 25.8 17.5 -14.5 6 14.7 NW 26 37 14 20 1013.5 1012.9 0.0
19/02:30pm 25.8 16.8 -14.5 6 14.7 NW 30 43 16 23 1013.6 1013.0 0.0
19/02:00pm 26.2 17.9 -14.2 6 14.9 NW 26 39 14 21 1013.8 1013.2 0.0
19/01:30pm 25.9 16.9 -14.4 6 14.7 NNW 30 39 16 21 1014.2 1013.6 0.0
19/01:00pm 25.7 17.8 -14.5 6 14.6 NW 24 35 13 19 1014.7 1014.1 0.0
19/12:30pm 24.9 16.6 -15.1 6 14.3 NNW 26 39 14 21 1015.3 1014.7 0.0
19/12:00pm 24.4 16.2 -13.6 7 13.9 N 26 35 14 19 1015.8 1015.2 0.0
19/11:30am 23.6 16.1 -14.2 7 13.5 N 22 32 12 17 1016.3 1015.8 0.0
19/11:00am 23.1 15.7 -12.9 8 13.1 N 22 30 12 16 1016.9 1016.3 0.0
19/10:30am 21.5 14.5 -11.4 10 12.1 N 20 26 11 14 1017.2 1016.6 0.0
19/10:00am 20.1 13.1 -12.4 10 11.5 N 20 26 11 14 1017.6 1017.0 0.0
19/09:30am 18.6 11.8 -11.3 12 10.7 NNE 19 26 10 14 1017.7 1017.2 0.0
19/09:00am 16.5 10.2 -10.2 15 9.5 NNE 17 22 9 12 1017.6 1017.0 0.0
19/08:30am 13.8 7.9 -10.1 18 8.2 NNE 15 19 8 10 1017.5 1016.9 0.0
19/08:00am 11.2 6.0 -10.3 21 7.1 NNE 11 15 6 8 1017.5 1016.9 0.0
19/07:30am 9.3 3.4 -10.2 24 6.3 NNE 15 19 8 10 1017.3 1016.7 0.0
19/07:00am 8.4 2.8 -10.5 25 6.0 NNE 13 17 7 9 1017.2 1016.6 0.0
19/06:30am 8.0 2.8 -10.3 26 5.8 NNE 11 13 6 7 1016.9 1016.3 0.0
19/06:00am 8.0 2.5 -10.3 26 5.8 NNE 13 15 7 8 1016.9 1016.3 0.0
19/05:30am 7.5 2.0 -10.3 27 5.6 NNE 13 15 7 8 1016.9 1016.3 0.0
19/05:00am 7.5 2.3 -10.3 27 5.6 NNE 11 13 6 7 1017.0 1016.4 0.0
19/04:30am 8.0 2.5 -10.3 26 5.8 NNE 13 15 7 8 1017.1 1016.5 0.0
19/04:00am 7.9 2.4 -9.9 27 5.7 NNE 13 15 7 8 1017.3 1016.7 0.0
19/03:30am 7.5 2.4 -9.4 29 5.4 NNE 11 13 6 7 1017.7 1017.2 0.0
19/03:00am 7.3 2.6 -9.1 30 5.3 NNE 9 11 5 6 1017.7 1017.2 0.0
19/02:30am 8.2 2.7 -9.2 28 5.7 NE 13 13 7 7 1017.9 1017.4 0.0
19/02:00am 8.6 3.2 -8.8 28 5.7 NNE 13 13 7 7 1018.0 1017.5 0.0
19/01:30am 8.2 3.6 -7.9 31 5.4 NE 9 9 5 5 1018.2 1017.7 0.0
19/01:00am 8.6 4.1 -7.1 32 5.4 NNE 9 11 5 6 1018.3 1017.8 0.0
19/12:30am 8.9 6.2 -6.1 34 5.3 CALM 0 0 0 0 1018.4 1017.9 0.0
19/12:00am 9.0 6.2 -6.8 32 5.5 CALM 0 0 0 0 1018.7 1018.1 0.0
 
Date/Time
WST
Temp
°C
App
Temp
°C
Dew
Point
°C
Rel
Hum
%
Delta-T
°C
Wind Press
QNH
hPa
Press
MSL
hPa
Rain since
9am
mm
Dir  Spd
km/h
Gust
km/h
Spd
kts
Gust
kts
18/11:30pm 10.3 7.2 -10.5 22 6.8 CALM 0 0 0 0 1019.0 1018.4 0.0
18/11:00pm 11.5 7.3 -10.0 21 7.2 W 6 6 3 3 1019.2 1018.6 0.0
18/10:30pm 11.2 7.1 -8.6 24 6.8 W 6 7 3 4 1019.4 1018.9 0.0
18/10:00pm 12.0 7.7 -8.5 23 7.1 W 7 9 4 5 1019.4 1018.9 0.0
18/09:30pm 13.4 8.9 -11.1 17 8.2 W 7 9 4 5 1019.4 1018.9 0.0
18/09:00pm 14.0 9.2 -10.6 17 8.4 WNW 9 9 5 5 1019.6 1019.1 0.0
18/08:30pm 14.6 9.8 -10.1 17 8.6 W 9 9 5 5 1019.6 1019.1 0.0
18/08:00pm 14.4 8.9 -9.6 18 8.4 W 13 15 7 8 1019.4 1018.9 0.0
18/07:30pm 14.3 11.3 -9.7 18 8.4 CALM 0 0 0 0 1019.2 1018.6 0.0
18/07:00pm 14.9 12.0 -8.5 19 8.4 CALM 0 0 0 0 1019.0 1018.4 0.0
18/06:30pm 16.3 12.6 -8.8 17 9.2 WNW 4 7 2 4 1018.8 1018.2 0.0
18/06:00pm 18.5 14.1 -10.4 13 10.5 WNW 7 7 4 4 1018.4 1017.9 0.0
18/05:30pm 20.8 16.4 -13.2 9 12.0 WNW 6 7 3 4 1018.3 1017.8 0.0
18/05:00pm 22.9 19.3 -13.1 8 13.0 NW 2 7 1 4 1018.2 1017.7 0.0
18/04:30pm 23.1 17.8 -12.9 8 13.1 NNW 11 17 6 9 1018.1 1017.6 0.0
18/04:00pm 23.3 19.7 -12.8 8 13.2 E 2 9 1 5 1018.1 1017.6 0.0
18/03:30pm 23.2 18.1 -14.5 7 13.3 NNE 9 13 5 7 1018.2 1017.7 0.0
18/03:00pm 23.4 18.1 -12.7 8 13.2 NNW 11 17 6 9 1018.3 1017.8 0.0
18/02:30pm 23.7 18.4 -12.5 8 13.4 NNE 11 30 6 16 1018.6 1018.0 0.0
18/02:00pm 23.4 18.5 -12.7 8 13.2 NNW 9 20 5 11 1018.8 1018.2 0.0
18/01:30pm 23.5 18.6 -11.2 9 13.1 NNW 9 17 5 9 1019.1 1018.5 0.0
18/01:00pm 22.7 17.4 -11.8 9 12.7 N 11 19 6 10 1019.8 1019.3 0.0
18/12:30pm 22.6 17.1 -9.3 11 12.4 N 13 19 7 10 1020.6 1020.0 0.0
18/12:00pm 21.9 15.7 -8.7 12 11.9 NNE 17 22 9 12 1020.9 1020.3 0.0
18/11:30am 21.5 15.7 -9.1 12 11.8 N 15 24 8 13 1021.4 1020.9 0.0
18/11:00am 20.5 14.7 -8.8 13 11.2 N 15 22 8 12 1021.9 1021.4 0.0
18/10:30am 19.8 13.3 -7.5 15 10.7 N 19 24 10 13 1022.3 1021.8 0.0
18/10:00am 18.7 13.0 -7.6 16 10.1 N 15 20 8 11 1022.7 1022.1 0.0
18/09:30am 17.5 11.8 -7.0 18 9.4 NNE 15 20 8 11 1022.8 1022.3 0.0
18/09:00am 15.2 9.6 -6.3 22 8.1 NNE 15 22 8 12 1022.7 1022.1 0.0
18/08:30am 13.4 8.2 -6.7 24 7.4 NNE 13 20 7 11 1022.4 1021.9 0.0
18/08:00am 10.7 6.4 -5.3 32 5.9 NNE 9 11 5 6 1022.4 1021.9 0.0
18/07:30am 9.1 4.7 -5.5 35 5.3 NE 9 11 5 6 1022.3 1021.8 0.0
18/07:00am 5.9 1.3 -4.5 47 3.7 NE 11 13 6 7 1022.1 1021.6 0.0
18/06:30am 5.0 0.4 -3.8 53 3.1 ENE 11 11 6 6 1022.0 1021.5 0.0
18/06:00am 5.0 1.4 -3.3 55 3.0 ESE 6 7 3 4 1021.7 1021.2 0.0
18/05:30am 5.6 1.8 -4.0 50 3.4 SSE 7 7 4 4 1021.6 1021.1 0.0
18/05:00am 6.6 2.8 -3.9 47 3.8 S 7 9 4 5 1021.5 1021.0 0.0
18/04:30am 6.8 2.6 -4.3 45 4.0 S 9 11 5 6 1021.3 1020.8 0.0
18/04:00am 6.7 2.5 -4.1 46 3.9 SSW 9 11 5 6 1021.2 1020.7 0.0
18/03:30am 6.6 2.8 -3.6 48 3.7 SE 7 9 4 5 1021.1 1020.6 0.0
18/03:00am 6.5 2.6 -4.6 45 3.9 ESE 7 7 4 4 1021.1 1020.6 0.0
18/02:30am 7.0 3.3 -4.4 44 4.1 ESE 6 7 3 4 1021.3 1020.8 0.0
18/02:00am 8.1 4.4 -4.3 41 4.5 SSE 6 7 3 4 1021.3 1020.8 0.0
18/01:30am 9.4 5.1 -4.5 37 5.2 S 9 11 5 6 1021.5 1021.0 0.0
18/01:00am 10.2 5.5 -4.9 34 5.6 S 11 11 6 6 1021.6 1021.1 0.0
18/12:30am 10.2 5.9 -4.9 34 5.6 S 9 9 5 5 1021.6 1021.1 0.0
18/12:00am 11.4 7.1 -4.7 32 6.1 S 9 11 5 6 1021.7 1021.2 0.0
 
Date/Time
WST
Temp
°C
App
Temp
°C
Dew
Point
°C
Rel
Hum
%
Delta-T
°C
Wind Press
QNH
hPa
Press
MSL
hPa
Rain since
9am
mm
Dir  Spd
km/h
Gust
km/h
Spd
kts
Gust
kts
17/11:30pm 11.0 7.2 -3.8 35 5.7 SSE 7 7 4 4 1021.8 1021.3 0.0
17/11:00pm 10.1 6.4 -2.9 40 5.0 SE 7 11 4 6 1022.0 1021.5 0.0
17/10:30pm 11.0 7.2 -3.8 35 5.7 SSE 7 7 4 4 1022.1 1021.6 0.0
17/10:00pm 10.6 6.7 -5.0 33 5.8 SSE 7 9 4 5 1022.2 1021.7 0.0
17/09:30pm 11.0 7.1 -4.2 34 5.8 S 7 7 4 4 1022.2 1021.7 0.0
17/09:00pm 12.2 8.2 -5.3 29 6.6 S 7 9 4 5 1022.1 1021.6 0.0
17/08:30pm 12.9 9.0 -4.7 29 6.8 S 7 9 4 5 1022.2 1021.7 0.0
17/08:00pm 13.7 9.4 -4.9 27 7.1 SE 9 9 5 5 1021.9 1021.4 0.0
17/07:30pm 14.0 10.4 -3.7 29 7.0 WNW 6 7 3 4 1021.8 1021.3 0.0
17/07:00pm 15.4 11.6 -4.0 26 7.7 WNW 7 7 4 4 1021.7 1021.2 0.0
17/06:30pm 18.4 14.3 -7.1 17 9.9 WNW 7 7 4 4 1021.5 1021.0 0.0

Other formats

Comma delimited format used in spreadsheet applications
http://www.bom.gov.au/fwo/IDW60801/IDW60801.94430.axf

JavaScript Object Notation format (JSON) in row-major order
http://www.bom.gov.au/fwo/IDW60801/IDW60801.94430.json

Data quality

Most of these data are generated automatically and are frequently updated. Quality checks on data are not normally performed. It is possible for incorrect values to appear. Refer to information at About Latest Weather Observations and please check the disclaimer before using these data.